Preview of NWS' New Version of Forecast
This preview is not operational and should not be used for support decisions.

Terminal Aerodrome Forecast (TAF)

Issued by National Weather Service (NWS)

                            
000
FTUS42 KKEY 241137
TAFEYW
TAF
KEYW 241137Z 2412/2512 06009KT P6SM FEW025 SCT050
      TEMPO 2412/2414 BKN025
     FM241500 09012G20KT P6SM SCT025 SCT100
     FM250200 08008KT P6SM SCT020 SCT100=